Aérodrome :
LOGIN :

S'inscrire | Disclaimer

   EN    FR    IT 

 










Légende :    VFR   VFR Marginal   IFR   IFR Intensif   IFR Très Intensif
Visi : 
Plafond : 
>= 8 km
>= 3000ft
5 à 8 km
1000 à 3000 ft
1500m à 5 km
500 à 1000 ft
800 à 1500m
200 à 500 ft
< 800m
< 200 ft
Symboles :   Orages  Brouillard  Fortes neiges  Fortes précipitations  Vent > 20 kt
SIGMETs :   Divers  Orages  Givrage  Turbulence  Onde Orograph.  Cendres Volcan.






- Altitude de l'aérodrome : 461 ft
- Code IATA : WIE


ETOU - Wiesbaden Army

DERNIER METAR :
  • 121956Z AUTO 01011G16KT 9999 BKN100 22/19 A2994 RMK AO2 RAE26 SLP135 P0000 T02230189 FZRANO $

METARs EXPIRÉS :
  • 121926Z AUTO 01012KT 9999 SCT130 23/19 A2995 RMK AO2 RAE26 SLP138 FZRANO $
  • 121856Z AUTO 36008KT 9999 -RA SCT120 23/19 A2995 RMK AO2 RAE06RAB06E28RAB28 TSB01E19TSB30E44 SLP138 P0009 T02270186 FZRANO $
  • 121844Z AUTO 35007KT 9999 -RA FEW085 23/19 A2995 RMK AO2 RAE06RAB06E28RAB28 TSB01E19TSB30E44 SLP138 FZRANO $
  • 121819Z AUTO 34013KT 9999 RA FEW055 OVC080 23/19 A2996 RMK AO2 LTG DSNT N AND SW RAE06RAB06 TSB01E19 SLP142 $
  • 121801Z AUTO 32006KT 9999 -TSRA M 24/18 A2997 RMK AO2 TSB01 SLP146 $
  • 121756Z AUTO 32006KT 9999 -RA M 24/18 A2996 RMK AO2 LTG DSNT E AND SW-NW RAB34 TSB20E38 SLP142 P0001 60001 T02360180 10352 20236 53018 $
  • 121720Z AUTO 27018G24KT 9999 TS BKN085 28/16 A2995 RMK AO2 TSB20 PRESRR SLP138 $

TAF AMD TAF ETOU
Valide du 12 à 19h jusqu'au 13 à 18h UTC


121944Z 1219/1318 09006KT 9999 FEW060 SCT120 QNH2995INS
BECMG 1317/1318 19009KT 9999 VCTS SCT060 BKN120CB QNH2991INS TX24/1219Z TN23/1304Z LAST NO AMDS AFT 1220 NEXT 1304



MET'MAP, la Météo Aéronautique d'un coup d'oeil ! - Copyright ORBIFLY Décembre 2007 - Disclaimer

ORBIFLY MET'MAP TEAM :

Programmation & Développement : Alexandra Zaïnal
Sur une idée originale de : Baudouin d'Aumeries
Assistance à la programmation : Marc-Olivier Méhu
Soutien technique & logistique : Manuel Goepfert

Contact : metmap@orbifly.com




SOURCES & CREDITS :

   NOAA